Buoy 46612

sailwx.info

Track history (hours):
 
Tides and Currents Weather Stations Pressure Air Temp Water Temp Dewpoint Dewpoint Depression Visibility Wind Speed Wind Dir Waves Ship Positions

Drifting buoy 46612

Last reported at 2015-Aug-02 16:00 UTC. Time now 2015-Aug-02 18:26 UTC.
Position N 32°10' W 143°01'.

Water temperature 23.2 ° C

Date/timePositionNaut miles runAvg speedWind from/ knotsBaromVisibWave heightAir tempDewpointWater temp
2015-Aug-02 16:00N 32°10' W 143°01'0 0.2 23.2
2015-Aug-02 15:00N 32°10' W 143°01'0 0.2 23.2
2015-Aug-02 14:00N 32°10' W 143°00'0 0.2 23.2
2015-Aug-02 13:00N 32°10' W 143°01'0 0.1 23.2
2015-Aug-02 11:00N 32°10' W 143°01'1 0.3 23.3
2015-Aug-02 08:00N 32°09' W 143°00'0 0.1 23.3
2015-Aug-02 07:00N 32°09' W 143°00'1 0.6 23.3
2015-Aug-02 06:00N 32°09' W 143°00'1 1.0 23.3
2015-Aug-02 05:00N 32°08' W 142°59'0 0.2 23.3
2015-Aug-02 03:00N 32°09' W 142°59'0 0.2 23.4
2015-Aug-02 02:00N 32°09' W 142°59'1 0.6 23.4
2015-Aug-02 01:00N 32°08' W 142°59'1 0.5 23.4
2015-Aug-02 00:00N 32°09' W 142°59'1 0.1 23.4
2015-Aug-01 19:00N 32°08' W 142°59'1 0.5 23.3
2015-Aug-01 17:00N 32°07' W 142°59'0 0.2 23.2
2015-Aug-01 15:00N 32°07' W 142°59'0 0.2 23.2
2015-Aug-01 13:00N 32°07' W 142°59'0 0.2 23.3
2015-Aug-01 12:00N 32°07' W 142°58'2 0.2 23.3
2015-Jul-31 22:00N 32°05' W 142°57'2 0.5 23.4
2015-Jul-31 18:00N 32°03' W 142°56'0 0.0 23.3
2015-Jul-31 17:00N 32°03' W 142°56'0 0.2 23.3
2015-Jul-31 16:00N 32°03' W 142°57'2 0.1 23.3
2015-Jul-31 05:00N 32°02' W 142°55'1 0.3 23.5
2015-Jul-31 03:00N 32°02' W 142°54'3 0.3 23.6
2015-Jul-30 15:00N 31°59' W 142°54'1 1.3 23.4
2015-Jul-30 14:00N 31°59' W 142°52'0 0.1 23.4
2015-Jul-30 11:00N 31°59' W 142°52'3 0.2 23.5
2015-Jul-29 18:00N 31°56' W 142°51'1 0.6 23.3
2015-Jul-29 17:00N 31°56' W 142°52'2 0.4 23.3
2015-Jul-29 11:00N 31°56' W 142°49'3 0.3 23.3
2015-Jul-29 01:00N 31°53' W 142°49'2 0.2 23.5
2015-Jul-28 16:00N 31°51' W 142°47'0 0.4 23.4
2015-Jul-28 15:00N 31°51' W 142°47'4 0.3 23.4
2015-Jul-28 02:00N 31°48' W 142°45'5 0.3 23.6
2015-Jul-27 10:00N 31°44' W 142°41'1 0.2 23.4
2015-Jul-27 06:00N 31°44' W 142°41'1 0.3 23.5
2015-Jul-27 02:00N 31°43' W 142°40'1 0.6 23.7
2015-Jul-27 00:00N 31°42' W 142°39'1 0.9 23.7
2015-Jul-26 23:00N 31°41' W 142°39'0 0.0 23.7
2015-Jul-26 22:00N 31°41' W 142°39'1 0.6 23.6
2015-Jul-26 21:00N 31°41' W 142°38'1 0.2 23.5
2015-Jul-26 17:00N 31°41' W 142°37'0 0.0 23.3
2015-Jul-26 16:00N 31°41' W 142°37'1 0.3 23.3
2015-Jul-26 13:00N 31°40' W 142°36'0 0.0 23.3
2015-Jul-26 12:00N 31°40' W 142°36'1 0.6 23.3
2015-Jul-26 11:00N 31°40' W 142°36'1 0.3 23.3
2015-Jul-26 07:00N 31°39' W 142°35'0 0.3 23.4
2015-Jul-26 06:00N 31°38' W 142°35'0 0.4 23.4
2015-Jul-26 05:00N 31°38' W 142°34'0 0.2 23.5
2015-Jul-26 04:00N 31°38' W 142°34'0 0.5 23.5
2015-Jul-26 03:00N 31°38' W 142°34'0 0.2 23.5
2015-Jul-26 02:00N 31°38' W 142°34'1 0.6 23.6
2015-Jul-26 00:00N 31°37' W 142°34'1 0.8 23.6
2015-Jul-25 23:00N 31°36' W 142°33'0 0.2 23.6
2015-Jul-25 22:00N 31°36' W 142°33'3 0.5 23.6
2015-Jul-25 15:00N 31°35' W 142°30'0 0.2 23.3
2015-Jul-25 14:00N 31°36' W 142°30'1 0.1 23.3
2015-Jul-25 07:00N 31°35' W 142°29'0 0.2 23.4
2015-Jul-25 06:00N 31°35' W 142°30'1 0.6 23.4
2015-Jul-25 04:00N 31°34' W 142°30'1 0.9 23.5
2015-Jul-25 03:00N 31°33' W 142°29'4 0.4 23.5
2015-Jul-24 17:00N 31°31' W 142°24'7 0.3 23.3
2015-Jul-23 16:00N 31°27' W 142°18'   23.4
Track history (hours):
 
Tides and Currents Weather Stations Pressure Air Temp Water Temp Dewpoint Dewpoint Depression Visibility Wind Speed Wind Dir Waves Ship Positions

Drifting buoy 46612

Last reported at 2015-Aug-02 16:00 UTC. Time now 2015-Aug-02 18:26 UTC.
Position N 32°10' W 143°01'.

Water temperature 23.2 ° C

Date/timePositionNaut miles runAvg speedWind from/ knotsBaromVisibWave heightAir tempDewpointWater temp
2015-Aug-02 16:00N 32°10' W 143°01'0 0.2 23.2
2015-Aug-02 15:00N 32°10' W 143°01'0 0.2 23.2
2015-Aug-02 14:00N 32°10' W 143°00'0 0.2 23.2
2015-Aug-02 13:00N 32°10' W 143°01'0 0.1 23.2
2015-Aug-02 11:00N 32°10' W 143°01'1 0.3 23.3
2015-Aug-02 08:00N 32°09' W 143°00'0 0.1 23.3
2015-Aug-02 07:00N 32°09' W 143°00'1 0.6 23.3
2015-Aug-02 06:00N 32°09' W 143°00'1 1.0 23.3
2015-Aug-02 05:00N 32°08' W 142°59'0 0.2 23.3
2015-Aug-02 03:00N 32°09' W 142°59'0 0.2 23.4
2015-Aug-02 02:00N 32°09' W 142°59'1 0.6 23.4
2015-Aug-02 01:00N 32°08' W 142°59'1 0.5 23.4
2015-Aug-02 00:00N 32°09' W 142°59'1 0.1 23.4
2015-Aug-01 19:00N 32°08' W 142°59'1 0.5 23.3
2015-Aug-01 17:00N 32°07' W 142°59'0 0.2 23.2
2015-Aug-01 15:00N 32°07' W 142°59'0 0.2 23.2
2015-Aug-01 13:00N 32°07' W 142°59'0 0.2 23.3
2015-Aug-01 12:00N 32°07' W 142°58'2 0.2 23.3
2015-Jul-31 22:00N 32°05' W 142°57'2 0.5 23.4
2015-Jul-31 18:00N 32°03' W 142°56'0 0.0 23.3
2015-Jul-31 17:00N 32°03' W 142°56'0 0.2 23.3
2015-Jul-31 16:00N 32°03' W 142°57'2 0.1 23.3
2015-Jul-31 05:00N 32°02' W 142°55'1 0.3 23.5
2015-Jul-31 03:00N 32°02' W 142°54'3 0.3 23.6
2015-Jul-30 15:00N 31°59' W 142°54'1 1.3 23.4
2015-Jul-30 14:00N 31°59' W 142°52'0 0.1 23.4
2015-Jul-30 11:00N 31°59' W 142°52'3 0.2 23.5
2015-Jul-29 18:00N 31°56' W 142°51'1 0.6 23.3
2015-Jul-29 17:00N 31°56' W 142°52'2 0.4 23.3
2015-Jul-29 11:00N 31°56' W 142°49'3 0.3 23.3
2015-Jul-29 01:00N 31°53' W 142°49'2 0.2 23.5
2015-Jul-28 16:00N 31°51' W 142°47'0 0.4 23.4
2015-Jul-28 15:00N 31°51' W 142°47'4 0.3 23.4
2015-Jul-28 02:00N 31°48' W 142°45'5 0.3 23.6
2015-Jul-27 10:00N 31°44' W 142°41'1 0.2 23.4
2015-Jul-27 06:00N 31°44' W 142°41'1 0.3 23.5
2015-Jul-27 02:00N 31°43' W 142°40'1 0.6 23.7
2015-Jul-27 00:00N 31°42' W 142°39'1 0.9 23.7
2015-Jul-26 23:00N 31°41' W 142°39'0 0.0 23.7
2015-Jul-26 22:00N 31°41' W 142°39'1 0.6 23.6
2015-Jul-26 21:00N 31°41' W 142°38'1 0.2 23.5
2015-Jul-26 17:00N 31°41' W 142°37'0 0.0 23.3
2015-Jul-26 16:00N 31°41' W 142°37'1 0.3 23.3
2015-Jul-26 13:00N 31°40' W 142°36'0 0.0 23.3
2015-Jul-26 12:00N 31°40' W 142°36'1 0.6 23.3
2015-Jul-26 11:00N 31°40' W 142°36'1 0.3 23.3
2015-Jul-26 07:00N 31°39' W 142°35'0 0.3 23.4
2015-Jul-26 06:00N 31°38' W 142°35'0 0.4 23.4
2015-Jul-26 05:00N 31°38' W 142°34'0 0.2 23.5
2015-Jul-26 04:00N 31°38' W 142°34'0 0.5 23.5
2015-Jul-26 03:00N 31°38' W 142°34'0 0.2 23.5
2015-Jul-26 02:00N 31°38' W 142°34'1 0.6 23.6
2015-Jul-26 00:00N 31°37' W 142°34'1 0.8 23.6
2015-Jul-25 23:00N 31°36' W 142°33'0 0.2 23.6
2015-Jul-25 22:00N 31°36' W 142°33'3 0.5 23.6
2015-Jul-25 15:00N 31°35' W 142°30'0 0.2 23.3
2015-Jul-25 14:00N 31°36' W 142°30'1 0.1 23.3
2015-Jul-25 07:00N 31°35' W 142°29'0 0.2 23.4
2015-Jul-25 06:00N 31°35' W 142°30'1 0.6 23.4
2015-Jul-25 04:00N 31°34' W 142°30'1 0.9 23.5
2015-Jul-25 03:00N 31°33' W 142°29'4 0.4 23.5
2015-Jul-24 17:00N 31°31' W 142°24'7 0.3 23.3
2015-Jul-23 16:00N 31°27' W 142°18'   23.4

Dump ship's entire track history